map of SCN home
SCN - Airport
Location
City:  Saarbrücken, Saarland, Germany
Name:Ensheim
ICAO:EDDR
IATA:SCN

Details
Type:Airport (Flugplatz, Airfield)
Use:Public/Civil
Latitude:49°12'52"N (49.214553)
Longitude:7°06'34"E (7.109508)
Datum:WGS 1984
Elevation:1058 ft (322 m)
Variation:2.25°E (WMM2015v2 magnetic declination)
0.17° annual change
Runways:2
Longest:6562 × 148 ft (2000 × 45 m), paved

Time
Time Zone:UTC+1 (DST+2)
Local Time:

Weather
METAR:EDDR 041350Z 16007KT 9999 FEW029 03/M05 Q1026 NOSIG
TAF:EDDR 041100Z 0412/0512 VRB03KT CAVOK
TEMPO 0502/0512 BKN014 PROB30
TEMPO 0504/0510 3000 BR BKN005

Related Locations
Nearby:
Farthest:CHT: 12021 mi / 19347 km
Waitangi [Tuuta], CIT, NZ

Find:

   beyond  
but within

Other Information
Maps:
NOTAMs:
Links:
Sources:

  
  • flag of Germany
  • flag of Saarland
  • flag of Saarbrücken
  

Sectional Chart

Flight Planning
at skyvector.com

Satellite Image

Google Maps Satellite view

 

Copyright © 2004-2019 Karl L. Swartz. All rights reserved.
The Great Circle Mapper name and logo are trademarks of the Great Circle Mapper.
All other trademarks mentioned herein belong to their respective owners.
Please see credits for attibutions and further copyright information.

  Follow gcmap on Facebook Follow gcmap on Twitter GCmap on LinkedIn

hCard Microformat

Geo Microformat